Contship Joy — 9HA4180 — position and weather

sailwx.info

Track history (hours):
 
Tides and Currents Weather Stations Pressure Air Temp Water Temp Dewpoint Dewpoint Depression Visibility Wind Speed Wind Dir Waves Ship Positions

Contship Joy

Last reported at 2017-Nov-24 01:59 UTC. Time now 2017-Nov-24 02:08 UTC.
Position N 45°27' E 012°15'.

Length 140 m; draft 7.6 m.

Type: Ship (hazmat cat A). MMSI: 249272000.

Date/timePositionNaut miles runAvg speedWind from/ knotsBaromVisibWave heightAir tempDewpointWater temp
2017-Nov-24 01:59N 45°27' E 012°15'0 0.0
2017-Nov-24 01:29N 45°27' E 012°15'0 0.0
2017-Nov-24 00:59N 45°27' E 012°15'0 0.0
2017-Nov-24 00:29N 45°27' E 012°15'0 0.0
2017-Nov-23 23:59N 45°27' E 012°15'0 0.0
2017-Nov-23 23:29N 45°27' E 012°15'0 0.0
2017-Nov-23 22:59N 45°27' E 012°15'0 0.0
2017-Nov-23 22:29N 45°27' E 012°15'0 0.0
2017-Nov-23 21:59N 45°27' E 012°15'0 0.0
2017-Nov-23 21:29N 45°27' E 012°15'0 0.0
2017-Nov-23 20:59N 45°27' E 012°15'0 0.0
2017-Nov-23 20:29N 45°27' E 012°15'0 0.0
2017-Nov-23 19:59N 45°27' E 012°15'0 0.0
2017-Nov-23 19:29N 45°27' E 012°15'0 0.0
2017-Nov-23 18:59N 45°27' E 012°15'0 0.0
2017-Nov-23 18:29N 45°27' E 012°15'0 0.0
2017-Nov-23 17:59N 45°27' E 012°15'0 0.0
2017-Nov-23 17:29N 45°27' E 012°15'0 0.0
2017-Nov-23 16:59N 45°27' E 012°15'0 0.0
2017-Nov-23 16:29N 45°27' E 012°15'0 0.0
2017-Nov-23 15:59N 45°27' E 012°15'0 0.0
2017-Nov-23 15:29N 45°27' E 012°15'0 0.0
2017-Nov-23 14:59N 45°27' E 012°15'0 0.0
2017-Nov-23 14:29N 45°27' E 012°15'0 0.0
2017-Nov-23 13:59N 45°27' E 012°15'0 0.0
2017-Nov-23 13:29N 45°27' E 012°15'0 0.0
2017-Nov-23 12:59N 45°27' E 012°15'0 0.0
2017-Nov-23 12:29N 45°27' E 012°15'0 0.0
2017-Nov-23 11:59N 45°27' E 012°15'0 0.0
2017-Nov-23 11:29N 45°27' E 012°15'0 0.0
2017-Nov-23 10:59N 45°27' E 012°15'0 0.0
2017-Nov-23 10:29N 45°27' E 012°15'0 0.0
2017-Nov-23 09:59N 45°27' E 012°15'0 0.0
2017-Nov-23 09:29N 45°27' E 012°15'0 0.0
2017-Nov-23 08:59N 45°27' E 012°15'0 0.0
2017-Nov-23 08:29N 45°27' E 012°15'0 0.0
2017-Nov-23 07:59N 45°27' E 012°15'0 0.0
2017-Nov-23 07:29N 45°27' E 012°15'0 0.0
2017-Nov-23 06:59N 45°27' E 012°15'0 0.9
2017-Nov-23 06:30N 45°27' E 012°16'4 8.3
2017-Nov-23 06:00N 45°23' E 012°16'4 8.8
2017-Nov-23 05:30N 45°20' E 012°20'4 7.5
2017-Nov-23 05:00N 45°19' E 012°25'2 4.7
2017-Nov-23 04:30N 45°22' E 012°25'0 0.1
2017-Nov-23 03:59N 45°22' E 012°25'0 0.0
2017-Nov-23 03:29N 45°22' E 012°25'0 0.0
2017-Nov-23 02:59N 45°22' E 012°25'0 0.0
2017-Nov-23 02:29N 45°22' E 012°25'0 0.0
2017-Nov-23 01:59N 45°22' E 012°25'0 0.0
2017-Nov-23 01:29N 45°22' E 012°25'0 0.0
2017-Nov-23 00:59N 45°22' E 012°25'0 0.0
2017-Nov-23 00:29N 45°22' E 012°25'0 0.0
2017-Nov-22 23:59N 45°22' E 012°25'0 0.0
2017-Nov-22 23:29N 45°22' E 012°25'0 0.0
2017-Nov-22 22:59N 45°22' E 012°25'0 0.0
2017-Nov-22 22:29N 45°22' E 012°25'0 0.0
2017-Nov-22 21:59N 45°22' E 012°25'0 0.0
2017-Nov-22 21:29N 45°22' E 012°25'0 0.0
2017-Nov-22 20:59N 45°22' E 012°25'0 0.0
2017-Nov-22 20:29N 45°22' E 012°25'0 0.0
2017-Nov-22 19:59N 45°22' E 012°25'0 0.0
2017-Nov-22 19:29N 45°22' E 012°25'  
2017-Nov-19 02:02N 37°33' E 016°26'114.3
2017-Nov-19 02:00N 37°32' E 016°26'714.3
2017-Nov-19 01:30N 37°27' E 016°21'11014.2
2017-Nov-18 17:46N 35°58' E 014°59'313.1
2017-Nov-18 17:30N 35°55' E 014°57'612.8
2017-Nov-18 17:00N 35°50' E 014°52'713.4
2017-Nov-18 16:30N 35°48' E 014°44'713.2
2017-Nov-18 15:59N 35°48' E 014°36'3 5.1
2017-Nov-18 15:28N 35°49' E 014°33'0 0.0
2017-Nov-18 14:55N 35°49' E 014°33'0 0.0
2017-Nov-18 14:28N 35°49' E 014°33'0 0.0
2017-Nov-18 13:55N 35°49' E 014°33'0 0.0
2017-Nov-18 13:28N 35°49' E 014°33'0 0.0
2017-Nov-18 12:55N 35°49' E 014°33'0 0.0
2017-Nov-18 12:25N 35°49' E 014°33'0 0.0
2017-Nov-18 11:58N 35°49' E 014°33'0 0.0
2017-Nov-18 11:28N 35°49' E 014°33'0 0.0
2017-Nov-18 05:34N 35°49' E 014°33'0 0.0
2017-Nov-18 05:27N 35°49' E 014°33'0 0.0
2017-Nov-17 17:27N 35°49' E 014°33'0 0.8
2017-Nov-17 17:00N 35°49' E 014°33'4 7.8
2017-Nov-17 16:29N 35°47' E 014°37'612.7
2017-Nov-17 16:00N 35°48' E 014°44'48811.3
2017-Nov-15 20:49N 37°54' E 024°33'  
Track history (hours):
 
Tides and Currents Weather Stations Pressure Air Temp Water Temp Dewpoint Dewpoint Depression Visibility Wind Speed Wind Dir Waves Ship Positions

Contship Joy

Last reported at 2017-Nov-24 01:59 UTC. Time now 2017-Nov-24 02:08 UTC.
Position N 45°27' E 012°15'.

Length 140 m; draft 7.6 m.

Type: Ship (hazmat cat A). MMSI: 249272000.

Date/timePositionNaut miles runAvg speedWind from/ knotsBaromVisibWave heightAir tempDewpointWater temp
2017-Nov-24 01:59N 45°27' E 012°15'0 0.0
2017-Nov-24 01:29N 45°27' E 012°15'0 0.0
2017-Nov-24 00:59N 45°27' E 012°15'0 0.0
2017-Nov-24 00:29N 45°27' E 012°15'0 0.0
2017-Nov-23 23:59N 45°27' E 012°15'0 0.0
2017-Nov-23 23:29N 45°27' E 012°15'0 0.0
2017-Nov-23 22:59N 45°27' E 012°15'0 0.0
2017-Nov-23 22:29N 45°27' E 012°15'0 0.0
2017-Nov-23 21:59N 45°27' E 012°15'0 0.0
2017-Nov-23 21:29N 45°27' E 012°15'0 0.0
2017-Nov-23 20:59N 45°27' E 012°15'0 0.0
2017-Nov-23 20:29N 45°27' E 012°15'0 0.0
2017-Nov-23 19:59N 45°27' E 012°15'0 0.0
2017-Nov-23 19:29N 45°27' E 012°15'0 0.0
2017-Nov-23 18:59N 45°27' E 012°15'0 0.0
2017-Nov-23 18:29N 45°27' E 012°15'0 0.0
2017-Nov-23 17:59N 45°27' E 012°15'0 0.0
2017-Nov-23 17:29N 45°27' E 012°15'0 0.0
2017-Nov-23 16:59N 45°27' E 012°15'0 0.0
2017-Nov-23 16:29N 45°27' E 012°15'0 0.0
2017-Nov-23 15:59N 45°27' E 012°15'0 0.0
2017-Nov-23 15:29N 45°27' E 012°15'0 0.0
2017-Nov-23 14:59N 45°27' E 012°15'0 0.0
2017-Nov-23 14:29N 45°27' E 012°15'0 0.0
2017-Nov-23 13:59N 45°27' E 012°15'0 0.0
2017-Nov-23 13:29N 45°27' E 012°15'0 0.0
2017-Nov-23 12:59N 45°27' E 012°15'0 0.0
2017-Nov-23 12:29N 45°27' E 012°15'0 0.0
2017-Nov-23 11:59N 45°27' E 012°15'0 0.0
2017-Nov-23 11:29N 45°27' E 012°15'0 0.0
2017-Nov-23 10:59N 45°27' E 012°15'0 0.0
2017-Nov-23 10:29N 45°27' E 012°15'0 0.0
2017-Nov-23 09:59N 45°27' E 012°15'0 0.0
2017-Nov-23 09:29N 45°27' E 012°15'0 0.0
2017-Nov-23 08:59N 45°27' E 012°15'0 0.0
2017-Nov-23 08:29N 45°27' E 012°15'0 0.0
2017-Nov-23 07:59N 45°27' E 012°15'0 0.0
2017-Nov-23 07:29N 45°27' E 012°15'0 0.0
2017-Nov-23 06:59N 45°27' E 012°15'0 0.9
2017-Nov-23 06:30N 45°27' E 012°16'4 8.3
2017-Nov-23 06:00N 45°23' E 012°16'4 8.8
2017-Nov-23 05:30N 45°20' E 012°20'4 7.5
2017-Nov-23 05:00N 45°19' E 012°25'2 4.7
2017-Nov-23 04:30N 45°22' E 012°25'0 0.1
2017-Nov-23 03:59N 45°22' E 012°25'0 0.0
2017-Nov-23 03:29N 45°22' E 012°25'0 0.0
2017-Nov-23 02:59N 45°22' E 012°25'0 0.0
2017-Nov-23 02:29N 45°22' E 012°25'0 0.0
2017-Nov-23 01:59N 45°22' E 012°25'0 0.0
2017-Nov-23 01:29N 45°22' E 012°25'0 0.0
2017-Nov-23 00:59N 45°22' E 012°25'0 0.0
2017-Nov-23 00:29N 45°22' E 012°25'0 0.0
2017-Nov-22 23:59N 45°22' E 012°25'0 0.0
2017-Nov-22 23:29N 45°22' E 012°25'0 0.0
2017-Nov-22 22:59N 45°22' E 012°25'0 0.0
2017-Nov-22 22:29N 45°22' E 012°25'0 0.0
2017-Nov-22 21:59N 45°22' E 012°25'0 0.0
2017-Nov-22 21:29N 45°22' E 012°25'0 0.0
2017-Nov-22 20:59N 45°22' E 012°25'0 0.0
2017-Nov-22 20:29N 45°22' E 012°25'0 0.0
2017-Nov-22 19:59N 45°22' E 012°25'0 0.0
2017-Nov-22 19:29N 45°22' E 012°25'  
2017-Nov-19 02:02N 37°33' E 016°26'114.3
2017-Nov-19 02:00N 37°32' E 016°26'714.3
2017-Nov-19 01:30N 37°27' E 016°21'11014.2
2017-Nov-18 17:46N 35°58' E 014°59'313.1
2017-Nov-18 17:30N 35°55' E 014°57'612.8
2017-Nov-18 17:00N 35°50' E 014°52'713.4
2017-Nov-18 16:30N 35°48' E 014°44'713.2
2017-Nov-18 15:59N 35°48' E 014°36'3 5.1
2017-Nov-18 15:28N 35°49' E 014°33'0 0.0
2017-Nov-18 14:55N 35°49' E 014°33'0 0.0
2017-Nov-18 14:28N 35°49' E 014°33'0 0.0
2017-Nov-18 13:55N 35°49' E 014°33'0 0.0
2017-Nov-18 13:28N 35°49' E 014°33'0 0.0
2017-Nov-18 12:55N 35°49' E 014°33'0 0.0
2017-Nov-18 12:25N 35°49' E 014°33'0 0.0
2017-Nov-18 11:58N 35°49' E 014°33'0 0.0
2017-Nov-18 11:28N 35°49' E 014°33'0 0.0
2017-Nov-18 05:34N 35°49' E 014°33'0 0.0
2017-Nov-18 05:27N 35°49' E 014°33'0 0.0
2017-Nov-17 17:27N 35°49' E 014°33'0 0.8
2017-Nov-17 17:00N 35°49' E 014°33'4 7.8
2017-Nov-17 16:29N 35°47' E 014°37'612.7
2017-Nov-17 16:00N 35°48' E 014°44'48811.3
2017-Nov-15 20:49N 37°54' E 024°33'  

Dump ship's entire track history